Lane, Kansas
Current Conditions -  °F | °C
As of 10:53 AM on Wednesday 22 Oct 2014 (Local Time) from KIXD Reporting Station
Few Clouds Few Clouds  
Wind Chill: 63°   Ceiling: Unl
Heat Index: 63°   Visibility: 10mi
Dew Point: 49°   Wind: 12mph
Humidity: 60%   Direction: 140°SE
Pressure: 30.2"   Gusts: NA
Location:  38.44°N, 95.08°W
Report Text: KIXD 221553Z 14010KT 10SM FEW041 17/09 A3020 RMK AO2 SLP221 T01720094
Loading
Personal Weather Stations






























Interactive Weather Map
Tropical Storm Tracking
New forecast layout! Learn more

10-Day Weather Forecast

Advertisements
Track Severe Weather on mobile